Time;durP1;ratioP1;P1;durP2;ratioP2;P2;SDS_P1;SDS_P2;PMS_P1;PMS_P2;Temp;Humidity;BMP_temperature;BMP_pressure;BME280_temperature;BME280_humidity;BME280_pressure;Samples;Min_cycle;Max_cycle;Signal;HPM_P1;HPM_P2
2023/06/10 00:00:44;;;;;;;18.70;9.10;;;;;;;15.38;89.24;100226.25;4973282;28;20549;-94
2023/06/10 00:03:10;;;;;;;20.00;8.20;;;;;;;15.32;89.24;100231.97;4974621;28;20048;-94
2023/06/10 00:05:38;;;;;;;26.08;8.15;;;;;;;15.25;89.93;100224.78;4974797;28;20027;-94
2023/06/10 00:08:07;;;;;;;27.85;8.70;;;;;;;15.28;90.05;100230.53;4973853;28;20503;-93
2023/06/10 00:10:35;;;;;;;24.52;9.07;;;;;;;15.14;90.79;100228.22;4974454;28;20117;-94
2023/06/10 00:13:01;;;;;;;25.90;9.23;;;;;;;15.01;91.57;100222.38;4972366;28;20264;-95
2023/06/10 00:15:26;;;;;;;23.10;8.90;;;;;;;15.03;92.00;100228.28;4974870;28;20034;-94
2023/06/10 00:17:52;;;;;;;23.90;9.77;;;;;;;15.03;91.77;100215.28;4974528;28;20038;-93
2023/06/10 00:20:18;;;;;;;25.45;9.55;;;;;;;14.96;91.65;100226.16;4971056;28;20499;-95
2023/06/10 00:22:45;;;;;;;23.38;9.93;;;;;;;14.96;91.78;100215.75;4974802;28;20066;-93
2023/06/10 00:25:11;;;;;;;20.17;8.00;;;;;;;14.98;91.88;100221.66;4972762;28;20023;-93
2023/06/10 00:27:36;;;;;;;23.45;9.82;;;;;;;14.95;92.15;100224.50;4974330;28;20388;-95
2023/06/10 00:30:06;;;;;;;22.15;8.93;;;;;;;15.05;91.53;100234.19;4972799;28;20592;-93
2023/06/10 00:32:33;;;;;;;25.38;9.38;;;;;;;15.05;90.82;100226.38;4974495;28;20101;-94
2023/06/10 00:34:58;;;;;;;19.55;8.68;;;;;;;14.89;91.80;100230.16;4973600;28;20461;-93
2023/06/10 00:37:24;;;;;;;14.52;7.80;;;;;;;14.93;91.68;100225.56;4972703;28;20026;-93
2023/06/10 00:39:49;;;;;;;17.23;7.90;;;;;;;14.86;91.92;100220.03;4973617;28;20070;-95
2023/06/10 00:42:15;;;;;;;16.15;8.45;;;;;;;14.77;92.77;100231.13;4972024;28;20031;-94
2023/06/10 00:44:40;;;;;;;19.08;8.88;;;;;;;14.77;92.65;100231.97;4971038;28;20050;-93
2023/06/10 00:47:06;;;;;;;20.67;8.20;;;;;;;14.72;93.22;100233.28;4970815;28;20070;-94
2023/06/10 00:49:32;;;;;;;18.70;8.23;;;;;;;14.66;93.45;100234.59;4972213;28;20027;-93
2023/06/10 00:51:58;;;;;;;23.38;10.05;;;;;;;14.56;94.26;100223.25;4973823;28;20401;-93
2023/06/10 00:54:24;;;;;;;21.80;8.32;;;;;;;14.59;93.78;100223.03;4973950;28;20294;-94
2023/06/10 00:56:49;;;;;;;23.45;8.95;;;;;;;14.59;93.15;100223.03;4973599;28;20027;-93
2023/06/10 00:59:15;;;;;;;20.38;9.65;;;;;;;14.62;93.03;100216.75;4973648;28;20038;-94
2023/06/10 01:01:43;;;;;;;16.75;8.60;;;;;;;14.52;93.75;100217.44;4973354;28;20054;-94
2023/06/10 01:04:11;;;;;;;21.83;9.18;;;;;;;14.50;93.70;100221.91;4971834;28;20437;-93
2023/06/10 01:06:57;;;;;;;17.90;8.48;;;;;;;14.48;94.07;100231.59;4971229;28;20033;-93
2023/06/10 01:09:37;;;;;;;21.38;8.32;;;;;;;14.63;92.82;100233.97;4973884;28;20031;-94
2023/06/10 01:12:16;;;;;;;22.05;9.57;;;;;;;14.52;93.57;100232.19;4971197;28;20031;-92
2023/06/10 01:14:44;;;;;;;19.80;9.13;;;;;;;14.58;93.02;100225.72;4971987;28;20042;-92
2023/06/10 01:17:10;;;;;;;23.85;9.23;;;;;;;14.50;92.62;100219.31;4971860;28;20034;-92
2023/06/10 01:19:36;;;;;;;23.55;11.07;;;;;;;14.36;94.01;100227.34;4972585;28;20444;-94
2023/06/10 01:22:02;;;;;;;20.42;10.13;;;;;;;14.33;94.82;100227.59;4973430;28;20114;-93
2023/06/10 01:24:28;;;;;;;21.15;8.63;;;;;;;14.31;93.94;100224.28;4973493;28;20101;-94
2023/06/10 01:26:57;;;;;;;20.20;8.98;;;;;;;14.32;93.82;100225.94;4972597;28;20118;-93
2023/06/10 01:29:37;;;;;;;21.40;10.65;;;;;;;14.26;94.62;100226.41;4972395;28;20109;-93
2023/06/10 01:32:11;;;;;;;20.58;9.13;;;;;;;14.27;94.62;100223.69;4973403;28;20027;-93
2023/06/10 01:34:39;;;;;;;14.82;8.25;;;;;;;14.40;93.84;100220.97;4972961;28;20026;-93
2023/06/10 01:37:05;;;;;;;21.13;9.88;;;;;;;14.46;93.61;100210.13;4973115;28;20065;-94
2023/06/10 01:39:31;;;;;;;22.23;9.43;;;;;;;14.41;92.19;100214.00;4973891;28;20026;-94
2023/06/10 01:41:57;;;;;;;20.75;8.90;;;;;;;14.27;93.89;100218.50;4971622;28;20214;-93
2023/06/10 01:44:23;;;;;;;18.90;10.05;;;;;;;14.16;94.65;100210.69;4973232;28;20131;-96
2023/06/10 01:46:49;;;;;;;22.25;9.30;;;;;;;14.26;94.87;100210.81;4973085;28;20485;-92
2023/06/10 01:49:15;;;;;;;24.27;9.93;;;;;;;14.18;95.85;100210.59;4971927;28;20023;-94
2023/06/10 01:51:40;;;;;;;22.65;10.93;;;;;;;14.28;95.75;100211.53;4972219;28;20030;-93
2023/06/10 01:54:06;;;;;;;20.55;9.82;;;;;;;14.12;97.01;100207.53;4971518;28;20070;-92
2023/06/10 01:56:32;;;;;;;25.38;12.85;;;;;;;14.09;97.25;100209.50;4973330;28;20209;-94
2023/06/10 01:58:59;;;;;;;24.85;10.27;;;;;;;14.06;97.91;100213.16;4973654;28;20101;-93
2023/06/10 02:01:27;;;;;;;30.08;11.30;;;;;;;14.21;96.73;100208.56;4971479;28;20509;-93
2023/06/10 02:03:53;;;;;;;24.30;11.20;;;;;;;14.26;97.01;100210.81;4971174;28;20500;-93
2023/06/10 02:06:18;;;;;;;37.60;13.07;;;;;;;14.26;96.79;100201.25;4972947;28;20026;-96
2023/06/10 02:08:44;;;;;;;25.02;12.02;;;;;;;14.45;95.05;100211.06;4971748;28;20027;-94
2023/06/10 02:11:09;;;;;;;19.38;10.52;;;;;;;14.39;95.30;100210.69;4973295;28;20023;-94
2023/06/10 02:13:35;;;;;;;27.38;11.25;;;;;;;14.33;96.46;100217.19;4971178;28;20366;-93
2023/06/10 02:16:00;;;;;;;22.58;11.63;;;;;;;14.44;95.00;100219.81;4971547;28;20507;-94
2023/06/10 02:18:27;;;;;;;24.85;12.85;;;;;;;14.45;95.65;100216.25;4974372;28;20130;-93
2023/06/10 02:20:53;;;;;;;24.42;11.80;;;;;;;14.39;96.17;100208.94;4976856;28;20032;-94
2023/06/10 02:23:19;;;;;;;21.35;12.18;;;;;;;14.43;95.81;100207.75;4975689;28;20054;-93
2023/06/10 02:25:44;;;;;;;23.80;12.82;;;;;;;14.43;96.01;100214.72;4976543;28;20031;-93
2023/06/10 02:28:10;;;;;;;29.50;14.50;;;;;;;14.38;96.64;100209.06;4975115;28;20062;-92
2023/06/10 02:30:35;;;;;;;33.03;13.52;;;;;;;14.39;96.21;100221.09;4976305;28;20038;-95
2023/06/10 02:33:01;;;;;;;28.90;12.50;;;;;;;14.29;97.38;100227.00;4974783;28;20035;-95
2023/06/10 02:35:26;;;;;;;23.13;13.20;;;;;;;14.27;98.24;100218.50;4974690;28;20027;-93
2023/06/10 02:37:52;;;;;;;25.83;12.55;;;;;;;14.31;97.65;100230.31;4976277;28;20026;-95
2023/06/10 02:40:17;;;;;;;23.80;13.27;;;;;;;14.38;97.84;100225.47;4975362;28;20031;-95
2023/06/10 02:42:43;;;;;;;27.05;14.50;;;;;;;14.19;98.86;100226.06;4974969;28;20034;-96
2023/06/10 02:45:08;;;;;;;33.17;14.73;;;;;;;14.23;98.42;100219.66;4975165;28;20555;-94
2023/06/10 02:47:34;;;;;;;31.10;14.65;;;;;;;14.26;98.95;100222.03;4974950;28;20038;-96
2023/06/10 02:49:59;;;;;;;23.45;13.60;;;;;;;14.21;99.04;100228.53;4975403;28;20362;-94
2023/06/10 02:52:25;;;;;;;27.75;15.55;;;;;;;14.13;99.24;100229.09;4975045;28;20038;-93
2023/06/10 02:54:50;;;;;;;24.10;14.30;;;;;;;14.26;99.34;100226.41;4976160;28;20042;-96
2023/06/10 02:57:16;;;;;;;31.83;15.25;;;;;;;14.09;100.00;100231.13;4975452;28;20529;-94
2023/06/10 02:59:41;;;;;;;29.80;15.57;;;;;;;14.31;99.98;100226.88;4974895;28;20026;-95
2023/06/10 03:02:07;;;;;;;26.30;12.93;;;;;;;14.30;99.92;100225.22;4974454;28;20500;-94
2023/06/10 03:04:33;;;;;;;33.60;17.77;;;;;;;14.07;100.00;100217.44;4974522;28;20026;-93
2023/06/10 03:07:00;;;;;;;29.27;14.80;;;;;;;14.07;100.00;100220.03;4975567;28;20035;-93
2023/06/10 03:09:25;;;;;;;31.65;16.50;;;;;;;14.03;100.00;100215.19;4973311;28;20023;-94
2023/06/10 03:11:51;;;;;;;37.85;16.67;;;;;;;13.97;100.00;100205.25;4975831;28;20018;-93
2023/06/10 03:14:16;;;;;;;37.15;16.90;;;;;;;14.02;100.00;100209.16;4974582;28;20569;-94
2023/06/10 03:16:42;;;;;;;30.08;15.35;;;;;;;14.08;100.00;100208.69;4975340;28;20025;-93
2023/06/10 03:19:08;;;;;;;31.33;16.42;;;;;;;14.27;100.00;100202.09;4974956;28;20441;-95
2023/06/10 03:21:34;;;;;;;27.15;16.15;;;;;;;14.18;100.00;100205.41;4975551;28;20027;-96
2023/06/10 03:24:00;;;;;;;29.05;14.48;;;;;;;14.21;100.00;100208.56;4975063;28;20058;-92
2023/06/10 03:26:27;;;;;;;25.00;13.07;;;;;;;14.24;100.00;100207.50;4975207;28;20026;-92
2023/06/10 03:28:52;;;;;;;29.42;15.45;;;;;;;14.38;100.00;100194.31;4973663;28;20385;-94
2023/06/10 03:31:18;;;;;;;25.67;14.50;;;;;;;14.27;100.00;100191.72;4972233;28;20034;-96
2023/06/10 03:33:43;;;;;;;27.35;14.45;;;;;;;14.39;99.17;100197.72;4975060;28;20037;-94
2023/06/10 03:36:09;;;;;;;32.80;15.57;;;;;;;14.33;100.00;100201.63;4974696;28;20054;-92
2023/06/10 03:38:35;;;;;;;33.97;18.08;;;;;;;14.09;100.00;100212.09;4975022;28;20022;-95
2023/06/10 03:41:00;;;;;;;35.53;18.95;;;;;;;13.76;100.00;100207.69;4975444;28;20034;-93
2023/06/10 03:43:27;;;;;;;35.00;16.58;;;;;;;13.93;100.00;100209.84;4975452;28;20038;-93
2023/06/10 03:45:52;;;;;;;33.75;16.98;;;;;;;14.01;100.00;100202.31;4973272;28;20125;-92
2023/06/10 03:48:18;;;;;;;23.40;14.98;;;;;;;14.00;100.00;100205.84;4974896;28;20106;-93
2023/06/10 03:50:43;;;;;;;31.02;16.73;;;;;;;14.09;100.00;100210.38;4974707;28;20446;-93
2023/06/10 03:53:09;;;;;;;32.38;16.17;;;;;;;14.18;100.00;100208.00;4974024;28;20089;-93
2023/06/10 03:55:34;;;;;;;28.63;15.18;;;;;;;14.15;100.00;100208.25;4974589;28;20393;-93
2023/06/10 03:58:00;;;;;;;33.22;17.02;;;;;;;14.17;100.00;100211.53;4974718;28;20106;-93
2023/06/10 04:00:25;;;;;;;36.13;18.60;;;;;;;13.97;100.00;100205.25;4973666;28;20186;-92
2023/06/10 04:02:51;;;;;;;37.90;18.02;;;;;;;13.92;100.00;100215.97;4974241;28;20039;-92
2023/06/10 04:05:17;;;;;;;33.08;17.80;;;;;;;13.92;100.00;100218.56;4973934;28;20114;-92
2023/06/10 04:07:44;;;;;;;37.45;18.45;;;;;;;13.88;100.00;100211.97;4974276;28;20066;-93
2023/06/10 04:10:10;;;;;;;32.42;17.48;;;;;;;14.00;100.00;100218.00;4974249;28;20030;-94
2023/06/10 04:12:36;;;;;;;33.35;17.63;;;;;;;14.01;100.00;100210.09;4973381;28;20019;-92
2023/06/10 04:15:03;;;;;;;35.20;17.58;;;;;;;13.96;100.00;100209.63;4972468;28;20027;-95
2023/06/10 04:17:28;;;;;;;37.03;18.55;;;;;;;14.04;100.00;100212.44;4974036;28;20034;-95
2023/06/10 04:19:54;;;;;;;35.50;17.27;;;;;;;13.95;100.00;100207.13;4974059;28;20027;-93
2023/06/10 04:22:20;;;;;;;41.53;20.80;;;;;;;13.78;100.00;100208.41;4973713;28;20030;-94
2023/06/10 04:24:46;;;;;;;27.80;17.08;;;;;;;13.87;100.00;100205.94;4972486;28;20085;-94
2023/06/10 04:27:11;;;;;;;35.55;17.70;;;;;;;13.97;100.00;100200.06;4972917;28;20579;-94
2023/06/10 04:29:37;;;;;;;28.83;14.63;;;;;;;13.97;100.00;100203.47;4973375;28;20027;-94
2023/06/10 04:32:02;;;;;;;40.47;18.80;;;;;;;13.91;100.00;100206.53;4972692;28;20417;-95
2023/06/10 04:34:28;;;;;;;31.75;19.35;;;;;;;13.91;100.00;100209.13;4972460;28;20579;-94
2023/06/10 04:36:54;;;;;;;33.80;19.60;;;;;;;13.90;100.00;100215.28;4972937;28;20027;-95
2023/06/10 04:39:19;;;;;;;31.77;17.67;;;;;;;13.93;100.00;100207.25;4973685;28;20053;-95
2023/06/10 04:41:45;;;;;;;25.83;14.45;;;;;;;14.04;100.00;100211.63;4973025;28;20037;-94
2023/06/10 04:44:11;;;;;;;27.27;16.10;;;;;;;14.07;100.00;100212.25;4970050;28;20450;-93
2023/06/10 04:46:37;;;;;;;30.15;16.50;;;;;;;14.19;100.00;100207.03;4970129;28;20054;-95
2023/06/10 04:49:02;;;;;;;32.15;14.70;;;;;;;14.28;100.00;100209.75;4973909;28;20027;-94
2023/06/10 04:51:28;;;;;;;36.03;16.80;;;;;;;14.30;100.00;100207.88;4978307;28;20030;-94
2023/06/10 04:53:53;;;;;;;24.10;14.95;;;;;;;14.39;100.00;100211.56;4973518;28;20042;-95
2023/06/10 04:56:19;;;;;;;26.77;13.65;;;;;;;14.53;99.53;100213.94;4972423;28;20033;-93
2023/06/10 04:58:44;;;;;;;24.42;13.65;;;;;;;14.73;96.83;100204.59;4973410;28;20381;-93
2023/06/10 05:01:09;;;;;;;27.02;15.82;;;;;;;14.71;96.48;100198.69;4971636;28;20022;-93
2023/06/10 05:03:35;;;;;;;25.20;13.73;;;;;;;14.81;96.17;100203.97;4972973;28;20042;-93
2023/06/10 05:06:00;;;;;;;29.70;14.35;;;;;;;14.82;95.98;100208.22;4970471;28;20031;-94
2023/06/10 05:08:25;;;;;;;32.35;15.88;;;;;;;14.75;95.07;100201.84;4972932;28;20085;-93
2023/06/10 05:10:51;;;;;;;26.90;14.70;;;;;;;14.68;96.38;100206.72;4972629;28;20030;-94
2023/06/10 05:13:17;;;;;;;30.17;16.85;;;;;;;14.69;96.30;100204.94;4973051;28;20536;-94
2023/06/10 05:15:44;;;;;;;37.38;17.90;;;;;;;14.74;95.77;100210.59;4973762;28;20026;-94
2023/06/10 05:18:11;;;;;;;34.85;14.73;;;;;;;14.84;95.45;100211.53;4972712;28;20023;-94
2023/06/10 05:20:36;;;;;;;36.88;16.35;;;;;;;14.85;96.21;100213.19;4967129;28;20105;-95
2023/06/10 05:23:01;;;;;;;38.97;16.73;;;;;;;14.90;95.15;100216.25;4971797;28;20110;-93
2023/06/10 05:25:30;;;;;;;38.08;17.50;;;;;;;14.91;94.83;100214.47;4969901;28;20018;-93
2023/06/10 05:27:55;;;;;;;34.85;17.30;;;;;;;14.98;94.13;100219.06;4972939;28;20046;-92
2023/06/10 05:30:21;;;;;;;38.30;16.15;;;;;;;14.90;93.75;100221.44;4976319;28;20477;-93
2023/06/10 05:32:46;;;;;;;29.85;16.40;;;;;;;14.69;93.80;100223.13;4981072;28;20182;-94
2023/06/10 05:35:12;;;;;;;34.78;16.73;;;;;;;14.75;94.10;100220.03;4969585;28;20173;-94
2023/06/10 05:37:37;;;;;;;35.20;16.10;;;;;;;14.48;94.54;100226.41;4967518;28;20030;-93
2023/06/10 05:40:04;;;;;;;29.52;15.25;;;;;;;14.44;96.06;100225.00;4967690;28;20030;-93
2023/06/10 05:42:30;;;;;;;30.33;16.05;;;;;;;14.32;97.56;100225.94;4972929;28;20027;-93
2023/06/10 05:44:55;;;;;;;38.80;17.10;;;;;;;14.45;96.00;100221.44;4973065;28;20077;-92
2023/06/10 05:47:20;;;;;;;25.75;14.50;;;;;;;14.70;94.75;100224.75;4969330;28;20027;-92
2023/06/10 05:49:48;;;;;;;30.45;15.27;;;;;;;14.89;92.86;100219.78;4973138;28;20023;-95
2023/06/10 05:52:13;;;;;;;31.92;14.95;;;;;;;15.17;90.70;100217.59;4969578;28;20023;-96
2023/06/10 05:54:38;;;;;;;31.17;15.25;;;;;;;15.46;87.42;100230.00;4975492;28;20058;-93
2023/06/10 05:57:05;;;;;;;27.92;14.18;;;;;;;15.67;87.16;100227.44;4976536;28;20385;-95
2023/06/10 05:59:31;;;;;;;34.17;13.43;;;;;;;15.75;85.60;100227.66;4976915;28;20023;-93
2023/06/10 06:01:56;;;;;;;23.48;13.60;;;;;;;15.68;84.90;100237.72;4976004;28;20026;-93
2023/06/10 06:04:21;;;;;;;26.55;14.18;;;;;;;15.68;85.57;100236.88;4976712;28;20046;-93
2023/06/10 06:06:47;;;;;;;27.67;14.70;;;;;;;15.30;85.58;100259.03;4975956;28;20539;-95
2023/06/10 06:09:12;;;;;;;22.63;13.65;;;;;;;15.45;86.05;100269.97;4976607;28;20019;-94
2023/06/10 06:11:38;;;;;;;27.52;14.25;;;;;;;15.48;85.80;100267.13;4977041;28;20114;-94
2023/06/10 06:14:03;;;;;;;26.85;12.52;;;;;;;15.49;86.23;100266.19;4976633;28;20030;-94
2023/06/10 06:16:28;;;;;;;26.40;11.98;;;;;;;15.59;85.85;100269.69;4975277;28;20062;-92
2023/06/10 06:18:54;;;;;;;24.73;12.85;;;;;;;15.31;86.77;100261.50;4975726;28;20492;-92
2023/06/10 06:21:19;;;;;;;31.25;12.55;;;;;;;15.24;86.91;100265.56;4975105;28;20039;-92
2023/06/10 06:23:44;;;;;;;21.60;11.73;;;;;;;15.37;86.48;100271.41;4977059;28;20489;-93
2023/06/10 06:26:10;;;;;;;23.55;13.50;;;;;;;15.29;86.53;100260.81;4977055;28;20026;-95
2023/06/10 06:28:35;;;;;;;23.92;12.27;;;;;;;15.29;87.21;100268.63;4977100;28;20027;-95
2023/06/10 06:31:01;;;;;;;22.17;12.40;;;;;;;15.41;86.33;100258.97;4975684;28;20678;-93
2023/06/10 06:33:26;;;;;;;25.13;11.77;;;;;;;15.43;86.92;100264.88;4976280;28;20026;-95
2023/06/10 06:35:52;;;;;;;26.58;12.13;;;;;;;15.71;86.52;100267.91;4975831;28;20031;-95
2023/06/10 06:38:17;;;;;;;28.42;12.13;;;;;;;15.71;84.28;100268.72;4973453;28;20069;-94
2023/06/10 06:40:42;;;;;;;22.40;12.38;;;;;;;15.84;83.71;100269.34;4975944;28;20023;-94
2023/06/10 06:43:08;;;;;;;24.08;11.20;;;;;;;16.68;79.45;100268.47;4976152;28;20043;-95
2023/06/10 06:45:33;;;;;;;20.33;11.75;;;;;;;16.43;79.71;100270.53;4974768;28;20022;-95
2023/06/10 06:47:59;;;;;;;21.33;11.23;;;;;;;16.48;79.43;100273.59;4975851;28;20117;-94
2023/06/10 06:50:24;;;;;;;26.10;12.00;;;;;;;16.41;79.15;100271.59;4976087;28;20031;-95
2023/06/10 06:52:50;;;;;;;23.25;11.63;;;;;;;16.85;77.20;100277.44;4975898;28;20037;-94
2023/06/10 06:55:15;;;;;;;18.85;11.70;;;;;;;17.05;75.23;100271.34;4974146;28;20482;-94
2023/06/10 06:57:41;;;;;;;24.85;12.15;;;;;;;17.05;76.16;100276.53;4974592;28;20038;-93
2023/06/10 07:00:08;;;;;;;26.88;11.60;;;;;;;16.67;76.96;100274.59;4976053;28;20062;-93
2023/06/10 07:02:34;;;;;;;30.20;12.15;;;;;;;16.98;76.46;100270.22;4975483;28;20023;-94
2023/06/10 07:05:00;;;;;;;21.85;10.70;;;;;;;17.44;74.81;100266.16;4975903;28;20508;-95
2023/06/10 07:07:25;;;;;;;18.88;10.70;;;;;;;18.11;70.36;100271.50;4972904;28;20053;-94
2023/06/10 07:09:52;;;;;;;26.92;11.65;;;;;;;18.66;68.34;100271.59;4976360;28;20050;-93
2023/06/10 07:12:18;;;;;;;22.42;10.65;;;;;;;18.73;67.87;100280.50;4976906;28;20038;-94
2023/06/10 07:14:44;;;;;;;20.10;10.38;;;;;;;19.34;65.13;100273.84;4975634;28;20033;-95
2023/06/10 07:17:09;;;;;;;19.05;9.57;;;;;;;19.28;63.55;100268.38;4975299;28;20027;-95
2023/06/10 07:19:35;;;;;;;21.92;10.50;;;;;;;20.83;59.24;100272.09;4975028;28;20034;-94
2023/06/10 07:22:00;;;;;;;26.00;10.18;;;;;;;22.51;54.42;100267.38;4974480;28;20054;-93
2023/06/10 07:24:26;;;;;;;25.15;10.43;;;;;;;23.47;51.27;100267.03;4975401;28;20015;-95
2023/06/10 07:26:51;;;;;;;25.27;10.05;;;;;;;22.43;52.58;100268.22;4974923;28;20378;-95
2023/06/10 07:29:16;;;;;;;20.65;9.73;;;;;;;22.88;52.61;100266.72;4979890;28;20033;-95
2023/06/10 07:31:42;;;;;;;17.77;8.10;;;;;;;22.65;52.99;100262.25;4983426;28;20070;-96
2023/06/10 07:34:08;;;;;;;21.13;9.23;;;;;;;21.78;54.88;100266.53;4979597;28;20113;-96
2023/06/10 07:36:33;;;;;;;26.58;10.85;;;;;;;23.26;51.49;100259.78;4977526;28;20353;-96
2023/06/10 07:39:02;;;;;;;19.70;9.95;;;;;;;22.59;52.08;100269.97;4975406;28;20443;-96
2023/06/10 07:41:27;;;;;;;23.17;8.90;;;;;;;23.14;51.75;100255.94;4975541;28;20027;-95
2023/06/10 07:43:57;;;;;;;20.50;7.28;;;;;;;23.35;50.67;100255.28;5237730;23;20893;-95
2023/06/10 07:49:21;;;;;;;20.70;9.02;;;;;;;23.11;50.97;100265.97;5034947;22;20062;-96
2023/06/10 07:51:50;;;;;;;23.60;10.07;;;;;;;22.70;52.04;100266.16;5009212;28;20026;-96
2023/06/10 07:54:15;;;;;;;22.75;8.43;;;;;;;23.13;51.01;100264.81;5021199;23;20038;-96
2023/06/10 07:56:54;;;;;;;;;;;;;;;;;;;;;
2023/06/10 07:59:26;;;;;;;18.92;8.05;;;;;;;23.71;51.03;100267.84;5002276;28;20082;-95
2023/06/10 08:01:52;;;;;;;22.95;8.80;;;;;;;22.67;51.77;100271.75;4996163;28;20041;-95
2023/06/10 08:04:18;;;;;;;21.13;7.35;;;;;;;22.62;53.64;100278.34;4994214;28;20023;-95
2023/06/10 08:06:44;;;;;;;17.70;9.55;;;;;;;22.92;52.16;100281.16;4996191;28;20037;-96
2023/06/10 08:09:09;;;;;;;23.27;8.75;;;;;;;23.69;50.30;100272.47;5003939;28;20053;-96
2023/06/10 08:14:13;;;;;;;21.67;9.77;;;;;;;22.94;51.22;100268.66;5100832;22;20054;-96
2023/06/10 08:16:44;;;;;;;18.55;7.45;;;;;;;23.55;51.69;100270.59;5133330;22;20035;-96
2023/06/10 08:19:11;;;;;;;30.05;8.70;;;;;;;23.47;51.00;100268.84;5004088;28;20030;-96
2023/06/10 08:21:37;;;;;;;19.55;8.77;;;;;;;23.63;50.16;100273.16;5008185;28;20053;-95
2023/06/10 08:24:03;;;;;;;24.05;9.30;;;;;;;23.19;51.81;100276.44;4977521;28;20450;-93
2023/06/10 08:26:28;;;;;;;24.27;8.38;;;;;;;23.21;50.66;100279.72;4994868;28;20036;-96
2023/06/10 08:28:55;;;;;;;18.23;7.55;;;;;;;23.67;49.76;100280.53;4997502;28;20026;-95
2023/06/10 08:31:20;;;;;;;20.92;7.45;;;;;;;24.15;49.71;100280.31;4996435;28;20027;-93
2023/06/10 08:33:46;;;;;;;20.55;7.45;;;;;;;24.53;48.81;100280.25;4995334;28;20034;-94
2023/06/10 08:36:11;;;;;;;18.50;8.10;;;;;;;24.93;47.69;100270.19;4993537;28;20097;-89
2023/06/10 08:38:37;;;;;;;14.38;6.75;;;;;;;25.32;47.74;100267.16;4991252;28;20382;-90
2023/06/10 08:41:05;;;;;;;14.20;6.50;;;;;;;25.14;46.61;100272.84;4990917;28;20109;-90
2023/06/10 08:43:45;;;;;;;28.23;8.10;;;;;;;25.03;46.61;100278.63;4992089;28;20058;-90
2023/06/10 08:46:12;;;;;;;14.25;6.72;;;;;;;26.03;46.71;100275.09;4993079;28;20019;-91
2023/06/10 08:48:43;;;;;;;17.50;7.10;;;;;;;25.86;47.75;100281.69;4992741;28;20031;-90
2023/06/10 08:51:10;;;;;;;15.02;6.25;;;;;;;26.53;43.90;100271.50;4992057;28;20014;-90
2023/06/10 08:53:37;;;;;;;18.95;7.78;;;;;;;26.32;45.04;100253.91;4989411;28;20030;-90
2023/06/10 08:56:05;;;;;;;17.85;5.88;;;;;;;26.82;44.90;100262.47;4991999;28;20026;-90
2023/06/10 08:58:33;;;;;;;16.10;6.80;;;;;;;26.49;45.69;100249.91;4989084;28;20393;-90
2023/06/10 09:00:59;;;;;;;16.95;7.05;;;;;;;26.67;44.70;100249.38;4992584;28;20033;-89
2023/06/10 09:03:25;;;;;;;20.40;7.20;;;;;;;26.45;44.07;100241.53;4992712;28;20030;-90
2023/06/10 09:05:51;;;;;;;13.07;5.70;;;;;;;27.47;43.04;100246.94;4993024;28;20037;-89
2023/06/10 09:08:16;;;;;;;19.00;6.78;;;;;;;27.01;43.38;100242.34;4992000;28;20026;-90
2023/06/10 09:10:42;;;;;;;16.75;6.78;;;;;;;27.37;42.91;100246.53;4992312;28;20022;-89
2023/06/10 09:13:07;;;;;;;13.60;6.25;;;;;;;27.39;42.55;100239.19;4992031;28;20041;-89
2023/06/10 09:15:33;;;;;;;18.13;6.10;;;;;;;27.63;43.25;100229.78;4992731;28;20033;-90
2023/06/10 09:17:59;;;;;;;14.07;6.15;;;;;;;27.86;42.36;100224.09;4992667;28;20037;-90
2023/06/10 09:20:25;;;;;;;14.88;6.85;;;;;;;27.79;41.97;100212.66;4992923;28;20030;-90
2023/06/10 09:22:50;;;;;;;14.82;5.63;;;;;;;28.13;42.08;100225.66;4994623;28;20391;-90
2023/06/10 09:25:16;;;;;;;15.95;6.35;;;;;;;28.52;40.61;100218.59;4988122;28;20472;-91
2023/06/10 09:27:53;;;;;;;15.20;5.85;;;;;;;28.11;42.27;100218.91;4990347;28;20062;-90
2023/06/10 09:30:33;;;;;;;16.63;6.70;;;;;;;28.04;42.19;100226.09;4991360;28;20034;-90
2023/06/10 09:33:09;;;;;;;16.88;6.47;;;;;;;28.57;41.18;100224.09;4992329;28;20032;-90
2023/06/10 09:35:34;;;;;;;13.70;5.43;;;;;;;29.05;41.07;100233.44;4992293;28;20763;-91
2023/06/10 09:38:02;;;;;;;18.38;7.38;;;;;;;29.07;40.91;100227.91;4992041;28;20026;-91
2023/06/10 09:40:27;;;;;;;11.32;5.85;;;;;;;29.49;40.73;100233.56;4990527;28;20030;-91
2023/06/10 09:42:55;;;;;;;11.73;5.43;;;;;;;29.88;40.11;100226.25;4992183;28;20033;-90
2023/06/10 09:45:20;;;;;;;11.20;5.43;;;;;;;30.32;38.74;100222.53;4991130;28;20030;-90
2023/06/10 09:47:47;;;;;;;17.08;6.18;;;;;;;30.77;38.71;100234.63;4992432;28;20038;-91
2023/06/10 09:50:13;;;;;;;17.25;6.55;;;;;;;29.49;39.17;100238.88;4990140;28;20574;-91
2023/06/10 09:52:38;;;;;;;14.57;6.13;;;;;;;30.38;38.35;100239.44;4990858;28;20058;-90
2023/06/10 09:55:07;;;;;;;13.70;5.53;;;;;;;30.40;38.77;100240.84;4991828;28;20031;-90
2023/06/10 09:57:33;;;;;;;18.60;5.82;;;;;;;30.68;36.72;100237.63;4992043;28;20109;-90
2023/06/10 09:59:59;;;;;;;15.60;5.75;;;;;;;30.67;38.19;100243.19;4991872;28;20057;-90
2023/06/10 10:02:24;;;;;;;24.65;7.70;;;;;;;31.10;37.15;100240.34;4989885;28;20168;-90
2023/06/10 10:04:50;;;;;;;14.85;6.20;;;;;;;31.56;36.49;100243.34;4992036;28;20408;-92
2023/06/10 10:07:15;;;;;;;13.50;5.43;;;;;;;31.03;38.04;100244.97;4989745;28;20112;-91
2023/06/10 10:09:42;;;;;;;18.75;7.03;;;;;;;31.29;37.43;100250.94;4989931;28;20476;-91
2023/06/10 10:12:15;;;;;;;14.88;6.40;;;;;;;30.71;37.06;100247.84;4986017;28;20018;-91
2023/06/10 10:14:46;;;;;;;9.15;4.38;;;;;;;31.66;36.87;100246.25;4986712;28;20627;-92
2023/06/10 10:17:14;;;;;;;12.65;5.35;;;;;;;31.54;35.37;100234.75;4988263;28;20030;-91
2023/06/10 10:19:47;;;;;;;15.55;5.57;;;;;;;32.09;35.61;100241.56;4989237;28;20046;-92
2023/06/10 10:22:19;;;;;;;14.57;4.68;;;;;;;32.36;34.65;100241.84;4989215;28;20019;-92
2023/06/10 10:24:55;;;;;;;11.90;4.30;;;;;;;31.77;35.72;100249.94;4990947;28;20033;-91
2023/06/10 10:27:28;;;;;;;12.68;5.93;;;;;;;31.84;34.99;100245.28;4992516;28;20030;-91
2023/06/10 10:29:55;;;;;;;7.55;4.53;;;;;;;31.40;35.80;100250.16;4987838;28;20477;-92
2023/06/10 10:32:34;;;;;;;11.25;5.10;;;;;;;30.39;37.39;100241.09;4988815;28;20473;-92
2023/06/10 10:35:15;;;;;;;13.70;6.13;;;;;;;30.94;37.09;100240.97;4990762;28;21163;-91
2023/06/10 10:37:41;;;;;;;13.15;4.63;;;;;;;31.19;36.65;100232.00;4980809;28;20049;-92
2023/06/10 10:40:08;;;;;;;11.00;5.20;;;;;;;31.81;35.54;100229.75;4991131;28;20264;-93
2023/06/10 10:42:35;;;;;;;11.88;5.00;;;;;;;31.93;36.44;100237.75;4991967;28;20038;-92
2023/06/10 10:45:02;;;;;;;10.45;5.78;;;;;;;30.78;36.70;100238.94;4992238;28;20026;-91
2023/06/10 10:47:30;;;;;;;10.90;5.60;;;;;;;31.03;36.67;100236.97;4990441;28;20030;-92
2023/06/10 10:49:58;;;;;;;11.82;5.10;;;;;;;30.34;37.15;100241.75;4989776;28;20026;-91
2023/06/10 10:52:25;;;;;;;11.48;4.75;;;;;;;30.88;36.81;100244.56;4992365;28;20027;-89
2023/06/10 10:54:53;;;;;;;12.52;4.93;;;;;;;30.58;37.44;100242.69;4992368;28;20053;-90
2023/06/10 10:57:20;;;;;;;13.93;5.40;;;;;;;29.18;38.89;100244.00;4996850;28;20113;-91
2023/06/10 10:59:48;;;;;;;12.80;5.05;;;;;;;29.70;38.90;100241.16;4994390;28;20034;-91
2023/06/10 11:02:18;;;;;;;11.00;4.75;;;;;;;30.06;38.29;100240.38;4991595;28;20026;-91
2023/06/10 11:04:46;;;;;;;13.10;5.28;;;;;;;30.43;38.23;100243.09;4993511;28;20035;-90
2023/06/10 11:07:15;;;;;;;9.18;4.55;;;;;;;31.10;37.41;100236.88;4993049;28;20052;-90
2023/06/10 11:10:03;;;;;;;10.27;4.53;;;;;;;30.75;37.19;100242.03;4993796;28;20022;-91
2023/06/10 11:12:56;;;;;;;9.60;5.20;;;;;;;30.57;38.62;100241.03;4992090;28;20034;-91
2023/06/10 11:15:29;;;;;;;11.18;4.90;;;;;;;31.21;36.59;100237.91;4984303;28;20057;-90
2023/06/10 11:18:14;;;;;;;9.90;4.35;;;;;;;31.00;37.29;100239.28;4992488;28;20121;-90